createdAt,value
2022-09-04T00:02:08.570Z,86.00
2022-09-04T00:04:39.692Z,86.10
2022-09-04T00:07:22.092Z,86.10
2022-09-04T00:09:59.203Z,86.00
2022-09-04T00:12:30.073Z,85.90
2022-09-04T00:15:01.633Z,85.70
2022-09-04T00:17:35.538Z,85.90
2022-09-04T00:20:07.791Z,85.70
2022-09-04T00:22:38.301Z,85.60
2022-09-04T00:25:13.689Z,85.70
2022-09-04T00:27:45.753Z,85.30
2022-09-04T00:30:20.702Z,85.20
2022-09-04T00:32:55.023Z,85.20
2022-09-04T00:35:25.448Z,85.10
2022-09-04T00:37:53.154Z,84.80
2022-09-04T00:40:31.328Z,85.10
2022-09-04T00:43:18.391Z,84.80
2022-09-04T00:46:09.623Z,84.70
2022-09-04T00:48:56.473Z,84.80
2022-09-04T00:51:43.589Z,84.90
2022-09-04T00:54:29.960Z,85.10
2022-09-04T00:57:16.131Z,85.40
2022-09-04T01:00:03.833Z,85.60
2022-09-04T01:02:31.620Z,85.60
2022-09-04T01:05:20.641Z,85.40
2022-09-04T01:07:56.757Z,85.20
2022-09-04T01:10:40.385Z,85.10
2022-09-04T01:13:13.116Z,85.10
2022-09-04T01:15:44.957Z,85.20
2022-09-04T01:18:21.960Z,85.00
2022-09-04T01:21:08.810Z,85.00
2022-09-04T01:23:45.789Z,85.30
2022-09-04T01:26:30.668Z,84.70
2022-09-04T01:29:13.767Z,84.50
2022-09-04T01:31:44.849Z,84.60
2022-09-04T01:34:31.541Z,84.60
2022-09-04T01:37:05.889Z,84.80
2022-09-04T01:39:35.038Z,84.90
2022-09-04T01:42:13.728Z,84.90
2022-09-04T01:44:41.786Z,85.00
2022-09-04T01:47:21.891Z,84.90
2022-09-04T01:50:02.464Z,84.90
2022-09-04T01:52:48.348Z,84.60
2022-09-04T01:55:25.315Z,84.70
2022-09-04T01:57:53.301Z,84.80
2022-09-04T02:00:24.975Z,85.30
2022-09-04T02:03:02.798Z,84.80
2022-09-04T02:05:49.854Z,84.80
2022-09-04T02:08:25.348Z,84.80
2022-09-04T02:11:02.719Z,84.90
2022-09-04T02:13:34.506Z,85.10
2022-09-04T02:16:14.788Z,85.00
2022-09-04T02:19:01.370Z,85.00
2022-09-04T02:21:33.372Z,85.20
2022-09-04T02:24:02.689Z,85.30
2022-09-04T02:26:33.526Z,85.40
2022-09-04T02:29:20.038Z,85.30
2022-09-04T02:32:10.747Z,85.30
2022-09-04T02:34:44.689Z,85.30
2022-09-04T02:37:25.464Z,85.00
2022-09-04T02:40:19.183Z,85.20
2022-09-04T02:42:59.194Z,85.30
2022-09-04T02:45:30.407Z,85.00
2022-09-04T02:48:04.301Z,85.00
2022-09-04T02:50:51.304Z,85.10
2022-09-04T02:53:38.184Z,84.50
2022-09-04T02:56:24.687Z,84.60
2022-09-04T02:59:03.707Z,84.60
2022-09-04T03:01:52.152Z,84.60
2022-09-04T03:04:32.029Z,84.50
2022-09-04T03:06:59.717Z,84.60
2022-09-04T03:09:34.049Z,84.60
2022-09-04T03:12:09.950Z,84.80
2022-09-04T03:14:51.939Z,84.50
2022-09-04T03:17:26.176Z,84.50
2022-09-04T03:19:54.663Z,84.50
2022-09-04T03:22:35.632Z,84.70
2022-09-04T03:25:12.896Z,84.60
2022-09-04T03:27:41.565Z,84.60
2022-09-04T03:30:11.402Z,84.70
2022-09-04T03:32:45.050Z,84.40
2022-09-04T03:35:13.355Z,84.50
2022-09-04T03:37:51.998Z,84.30
2022-09-04T03:40:23.030Z,84.70
2022-09-04T03:43:03.129Z,84.60
2022-09-04T03:46:00.497Z,84.50
2022-09-04T03:48:51.457Z,84.50
2022-09-04T03:51:24.631Z,84.40
2022-09-04T03:54:12.716Z,84.10
2022-09-04T03:56:40.689Z,84.40
2022-09-04T03:59:11.446Z,84.50
2022-09-04T04:01:56.380Z,84.40
2022-09-04T04:04:48.765Z,84.60
2022-09-04T04:07:20.111Z,85.00
2022-09-04T04:09:48.056Z,84.90
2022-09-04T04:12:27.667Z,84.90
2022-09-04T04:14:55.595Z,84.90
2022-09-04T04:17:31.715Z,84.40
2022-09-04T04:20:22.405Z,84.10
2022-09-04T04:22:50.136Z,84.60
2022-09-04T04:25:32.968Z,84.40
2022-09-04T04:28:00.940Z,84.40
2022-09-04T04:30:35.503Z,84.10
2022-09-04T04:33:22.768Z,83.90
2022-09-04T04:36:13.382Z,84.30
2022-09-04T04:38:41.055Z,84.20
2022-09-04T04:41:25.077Z,83.80
2022-09-04T04:44:45.183Z,83.90
2022-09-04T04:47:17.255Z,84.20
2022-09-04T04:50:03.683Z,84.20
2022-09-04T04:52:50.705Z,84.20
2022-09-04T04:55:41.782Z,84.00
2022-09-04T04:58:21.821Z,84.60
2022-09-04T05:01:04.507Z,84.20
2022-09-04T05:03:52.632Z,84.10
2022-09-04T05:06:31.782Z,84.10
2022-09-04T05:09:06.283Z,84.00
2022-09-04T05:11:47.008Z,83.70
2022-09-04T05:14:24.224Z,83.60
2022-09-04T05:17:03.740Z,83.70
2022-09-04T05:19:47.826Z,83.60
2022-09-04T05:22:21.337Z,83.80
2022-09-04T05:24:55.711Z,84.00
2022-09-04T05:27:23.978Z,84.00
2022-09-04T05:30:05.708Z,84.00
2022-09-04T05:32:36.306Z,84.00
2022-09-04T05:35:40.548Z,84.20
2022-09-04T05:38:13.938Z,83.90
2022-09-04T05:40:58.736Z,83.80
2022-09-04T05:43:30.021Z,83.80
2022-09-04T05:46:17.106Z,83.30
2022-09-04T05:48:53.095Z,83.60
2022-09-04T05:51:29.984Z,83.70
2022-09-04T05:54:10.149Z,84.00
2022-09-04T05:56:47.362Z,84.00
2022-09-04T05:59:24.096Z,83.40
2022-09-04T06:02:04.698Z,83.30
2022-09-04T06:05:02.154Z,82.90
2022-09-04T06:07:48.602Z,82.90
2022-09-04T06:10:36.251Z,82.80
2022-09-04T06:13:17.357Z,81.00
2022-09-04T06:15:52.910Z,81.40
2022-09-04T06:18:24.948Z,81.20
2022-09-04T06:21:12.349Z,81.70
2022-09-04T06:23:50.879Z,81.30
2022-09-04T06:26:31.714Z,81.10
2022-09-04T06:29:29.633Z,81.10
2022-09-04T06:32:08.967Z,81.10
2022-09-04T06:35:01.946Z,81.10
2022-09-04T06:37:42.635Z,81.60
2022-09-04T06:40:21.553Z,80.90
2022-09-04T06:42:58.158Z,80.70
2022-09-04T06:45:29.914Z,80.90
2022-09-04T06:48:09.594Z,79.70
2022-09-04T06:50:43.195Z,79.60
2022-09-04T06:53:27.377Z,79.40
2022-09-04T06:56:10.166Z,79.50
2022-09-04T06:59:00.631Z,79.30
2022-09-04T07:01:40.837Z,78.90
2022-09-04T07:04:27.850Z,77.70
2022-09-04T07:07:08.514Z,77.90
2022-09-04T07:09:46.733Z,77.90
2022-09-04T07:12:17.886Z,77.00
2022-09-04T07:15:03.390Z,76.90
2022-09-04T07:17:37.595Z,76.80
2022-09-04T07:20:22.860Z,77.10
2022-09-04T07:23:10.647Z,75.80
2022-09-04T07:25:45.236Z,75.30
2022-09-04T07:28:29.843Z,74.80
2022-09-04T07:31:09.130Z,73.60
2022-09-04T07:33:38.094Z,73.50
2022-09-04T07:36:08.519Z,72.80
2022-09-04T07:38:40.139Z,72.80
2022-09-04T07:41:32.897Z,73.40
2022-09-04T07:44:07.527Z,71.90
2022-09-04T07:46:44.370Z,71.60
2022-09-04T07:49:35.788Z,71.80
2022-09-04T07:52:20.478Z,71.90
2022-09-04T07:54:59.071Z,71.30
2022-09-04T07:57:39.760Z,71.10
2022-09-04T08:00:14.350Z,70.70
2022-09-04T08:03:02.189Z,71.00
2022-09-04T08:05:49.964Z,69.90
2022-09-04T08:08:34.141Z,70.20
2022-09-04T08:11:18.523Z,69.40
2022-09-04T08:14:00.741Z,69.50
2022-09-04T08:16:35.018Z,68.00
2022-09-04T08:19:24.423Z,68.40
2022-09-04T08:21:53.758Z,68.20
2022-09-04T08:24:41.628Z,68.10
2022-09-04T08:27:31.013Z,68.10
2022-09-04T08:30:07.589Z,69.00
2022-09-04T08:32:54.763Z,68.80
2022-09-04T08:35:37.611Z,68.00
2022-09-04T08:38:32.245Z,67.70
2022-09-04T08:41:19.291Z,67.90
2022-09-04T08:44:06.446Z,67.30
2022-09-04T08:46:43.530Z,65.90
2022-09-04T08:49:18.722Z,66.40
2022-09-04T08:51:57.617Z,67.20
2022-09-04T08:54:26.660Z,66.50
2022-09-04T08:57:04.357Z,66.20
2022-09-04T08:59:51.676Z,67.20
2022-09-04T09:02:23.374Z,66.90
2022-09-04T09:05:07.832Z,66.30
2022-09-04T09:07:45.419Z,66.20
2022-09-04T09:10:26.180Z,66.30
2022-09-04T09:13:07.794Z,65.90
2022-09-04T09:15:55.848Z,65.70
2022-09-04T09:18:34.418Z,65.20
2022-09-04T09:21:02.411Z,65.20
2022-09-04T09:23:52.477Z,65.30
2022-09-04T09:26:24.584Z,65.20
2022-09-04T09:28:56.397Z,65.60
2022-09-04T09:31:36.040Z,65.20
2022-09-04T09:34:09.982Z,65.10
2022-09-04T09:37:03.022Z,65.20
2022-09-04T09:39:32.243Z,66.00
2022-09-04T09:42:14.763Z,65.60
2022-09-04T09:44:46.445Z,65.80
2022-09-04T09:47:34.799Z,65.30
2022-09-04T09:50:13.248Z,64.40
2022-09-04T09:53:01.989Z,64.00
2022-09-04T09:55:39.621Z,64.20
2022-09-04T09:58:37.145Z,64.30
2022-09-04T10:01:08.742Z,64.80
2022-09-04T10:03:39.343Z,64.30
2022-09-04T10:06:11.349Z,64.30
2022-09-04T10:08:58.297Z,64.10
2022-09-04T10:11:49.182Z,64.10
2022-09-04T10:14:24.463Z,63.70
2022-09-04T10:16:53.430Z,63.90
2022-09-04T10:19:40.574Z,63.40
2022-09-04T10:22:20.967Z,64.40
2022-09-04T10:24:48.954Z,63.10
2022-09-04T10:27:17.324Z,63.90
2022-09-04T10:30:03.513Z,63.40
2022-09-04T10:32:34.700Z,63.10
2022-09-04T10:35:09.900Z,63.40
2022-09-04T10:37:53.429Z,62.40
2022-09-04T10:40:48.163Z,62.60
2022-09-04T10:43:19.458Z,62.30
2022-09-04T10:46:09.944Z,62.10
2022-09-04T10:48:45.456Z,61.50
2022-09-04T10:51:14.107Z,61.70
2022-09-04T10:53:48.322Z,61.50
2022-09-04T10:56:27.045Z,61.40
2022-09-04T10:59:05.297Z,60.70
2022-09-04T11:01:35.692Z,59.60
2022-09-04T11:04:04.330Z,59.40
2022-09-04T11:06:58.221Z,59.80
2022-09-04T11:09:31.999Z,60.40
2022-09-04T11:12:12.367Z,59.50
2022-09-04T11:15:06.725Z,58.20
2022-09-04T11:17:44.122Z,58.70
2022-09-04T11:20:30.743Z,59.00
2022-09-04T11:23:09.287Z,59.40
2022-09-04T11:25:43.112Z,58.80
2022-09-04T11:28:30.866Z,59.60
2022-09-04T11:31:02.244Z,58.50
2022-09-04T11:33:36.779Z,58.70
2022-09-04T11:36:22.856Z,58.70
2022-09-04T11:39:00.054Z,58.70
2022-09-04T11:41:46.403Z,59.00
2022-09-04T11:44:33.986Z,57.70
2022-09-04T11:47:20.346Z,58.40
2022-09-04T11:50:06.877Z,57.90
2022-09-04T11:52:53.919Z,57.50
2022-09-04T11:55:41.728Z,57.30
2022-09-04T11:58:28.838Z,57.60
2022-09-04T12:01:00.921Z,57.40
2022-09-04T12:03:49.800Z,59.20
2022-09-04T12:06:36.718Z,58.70
2022-09-04T12:09:13.768Z,58.10
2022-09-04T12:11:42.170Z,58.60
2022-09-04T12:14:23.758Z,57.70
2022-09-04T12:17:11.170Z,58.10
2022-09-04T12:19:59.175Z,57.40
2022-09-04T12:22:46.060Z,56.60
2022-09-04T12:25:21.219Z,57.10
2022-09-04T12:28:09.074Z,55.90
2022-09-04T12:30:40.319Z,56.90
2022-09-04T12:33:11.761Z,56.90
2022-09-04T12:35:52.081Z,57.00
2022-09-04T12:38:29.723Z,56.50
2022-09-04T12:41:10.641Z,56.40
2022-09-04T12:43:52.097Z,56.80
2022-09-04T12:46:56.443Z,56.70
2022-09-04T12:49:35.568Z,56.00
2022-09-04T12:52:27.115Z,57.00
2022-09-04T12:55:15.919Z,55.80
2022-09-04T12:57:47.715Z,55.20
2022-09-04T13:00:18.063Z,55.10
2022-09-04T13:03:02.202Z,55.30
2022-09-04T13:05:32.196Z,54.70
2022-09-04T13:08:09.790Z,54.10
2022-09-04T13:10:44.499Z,54.90
2022-09-04T13:13:21.571Z,53.80
2022-09-04T13:16:00.803Z,54.30
2022-09-04T13:18:35.269Z,53.40
2022-09-04T13:21:19.355Z,54.20
2022-09-04T13:24:04.305Z,53.30
2022-09-04T13:26:57.830Z,53.90
2022-09-04T13:29:40.893Z,53.40
2022-09-04T13:32:18.644Z,53.00
2022-09-04T13:34:55.525Z,53.80
2022-09-04T13:37:30.614Z,53.70
2022-09-04T13:40:19.001Z,53.40
2022-09-04T13:42:59.448Z,52.60
2022-09-04T13:45:31.201Z,53.00
2022-09-04T13:47:59.173Z,53.40
2022-09-04T13:50:35.202Z,53.20
2022-09-04T13:53:25.921Z,53.40
2022-09-04T13:55:57.542Z,52.50
2022-09-04T13:58:33.093Z,52.70
2022-09-04T14:01:02.477Z,53.30
2022-09-04T14:03:38.424Z,52.60
2022-09-04T14:06:08.673Z,52.60
2022-09-04T14:08:40.196Z,53.60
2022-09-04T14:11:16.043Z,53.10
2022-09-04T14:14:03.506Z,52.90
2022-09-04T14:16:36.955Z,51.60
2022-09-04T14:19:15.023Z,51.40
2022-09-04T14:21:47.691Z,51.00
2022-09-04T14:24:21.795Z,50.40
2022-09-04T14:26:56.201Z,50.10
2022-09-04T14:29:27.103Z,50.70
2022-09-04T14:32:14.088Z,50.60
2022-09-04T14:34:52.469Z,50.50
2022-09-04T14:37:44.599Z,50.20
2022-09-04T14:40:27.485Z,49.90
2022-09-04T14:43:00.386Z,50.00
2022-09-04T14:45:48.546Z,48.80
2022-09-04T14:48:17.826Z,48.10
2022-09-04T14:50:48.795Z,48.30
2022-09-04T14:53:22.377Z,48.40
2022-09-04T14:56:11.820Z,48.60
2022-09-04T14:58:42.307Z,49.00
2022-09-04T15:01:21.624Z,49.20
2022-09-04T15:04:01.813Z,48.50
2022-09-04T15:06:49.322Z,48.70
2022-09-04T15:09:41.402Z,48.90
2022-09-04T15:12:24.090Z,48.10
2022-09-04T15:14:57.749Z,47.40
2022-09-04T15:17:28.583Z,48.30
2022-09-04T15:19:56.506Z,47.50
2022-09-04T15:22:36.611Z,47.80
2022-09-04T15:25:56.769Z,48.00
2022-09-04T15:28:19.622Z,48.80
2022-09-04T15:31:03.280Z,48.30
2022-09-04T15:33:31.420Z,48.50
2022-09-04T15:36:08.958Z,48.10
2022-09-04T15:38:37.546Z,48.20
2022-09-04T15:41:17.841Z,48.50
2022-09-04T15:43:48.512Z,48.30
2022-09-04T15:46:35.932Z,48.60
2022-09-04T15:49:20.853Z,49.00
2022-09-04T15:51:52.293Z,49.20
2022-09-04T15:54:21.572Z,49.40
2022-09-04T15:56:52.891Z,48.00
2022-09-04T15:59:41.310Z,48.90
2022-09-04T16:02:36.738Z,49.20
2022-09-04T16:05:15.232Z,49.40
2022-09-04T16:07:55.037Z,48.90
2022-09-04T16:10:26.083Z,49.00
2022-09-04T16:12:57.442Z,49.30
2022-09-04T16:15:32.937Z,49.10
2022-09-04T16:18:03.333Z,49.40
2022-09-04T16:20:35.523Z,49.80
2022-09-04T16:23:08.838Z,49.70
2022-09-04T16:25:43.168Z,49.90
2022-09-04T16:28:16.129Z,50.00
2022-09-04T16:30:48.208Z,50.30
2022-09-04T16:33:36.100Z,50.40
2022-09-04T16:36:03.848Z,50.60
2022-09-04T16:38:35.537Z,50.30
2022-09-04T16:41:11.278Z,50.40
2022-09-04T16:43:39.657Z,50.30
2022-09-04T16:46:33.480Z,50.10
2022-09-04T16:49:19.725Z,49.70
2022-09-04T16:51:58.851Z,49.30
2022-09-04T16:54:37.696Z,49.80
2022-09-04T16:57:17.755Z,50.10
2022-09-04T16:59:51.076Z,50.20
2022-09-04T17:02:20.957Z,50.00
2022-09-04T17:05:11.270Z,50.20
2022-09-04T17:07:47.619Z,50.10
2022-09-04T17:10:19.556Z,50.50
2022-09-04T17:12:54.798Z,50.60
2022-09-04T17:15:27.771Z,50.60
2022-09-04T17:17:57.824Z,50.90
2022-09-04T17:20:51.627Z,51.00
2022-09-04T17:29:01.748Z,51.40
2022-09-04T17:29:13.816Z,51.60
2022-09-04T17:29:49.881Z,51.70
2022-09-04T17:33:42.283Z,52.00
2022-09-04T17:40:34.984Z,51.90
2022-09-04T17:40:50.562Z,52.30
2022-09-04T17:41:40.761Z,52.60
2022-09-04T17:44:03.322Z,52.80
2022-09-04T17:46:32.810Z,53.00
2022-09-04T17:49:07.565Z,53.30
2022-09-04T17:51:37.556Z,53.60
2022-09-04T17:54:12.230Z,53.80
2022-09-04T17:56:41.097Z,53.90
2022-09-04T17:59:13.800Z,54.10
2022-09-04T18:01:55.695Z,54.40
2022-09-04T18:04:32.864Z,54.50
2022-09-04T18:07:57.685Z,54.60
2022-09-04T18:10:33.060Z,55.00
2022-09-04T18:13:37.069Z,55.20
2022-09-04T18:16:21.574Z,55.50
2022-09-04T18:18:57.626Z,55.80
2022-09-04T18:21:32.256Z,55.90
2022-09-04T18:24:04.330Z,56.00
2022-09-04T18:26:40.212Z,56.20
2022-09-04T18:30:37.064Z,56.40
2022-09-04T18:37:13.236Z,56.90
2022-09-04T18:37:20.413Z,57.00
2022-09-04T18:38:21.105Z,57.60
2022-09-04T18:47:00.320Z,58.00
2022-09-04T18:50:23.817Z,58.10
2022-09-04T18:50:38.513Z,58.80
2022-09-04T18:50:44.669Z,58.70
2022-09-04T18:53:03.334Z,59.00
2022-09-04T18:55:35.348Z,59.20
2022-09-04T18:58:13.032Z,59.60
2022-09-04T19:00:48.958Z,59.70
2022-09-04T19:03:23.138Z,59.70
2022-09-04T19:05:53.669Z,60.00
2022-09-04T19:08:29.545Z,59.90
2022-09-04T19:11:01.941Z,60.00
2022-09-04T19:13:51.193Z,60.20
2022-09-04T19:16:34.277Z,60.40
2022-09-04T19:19:30.650Z,60.70
2022-09-04T19:22:13.720Z,60.90
2022-09-04T19:24:59.503Z,61.10
2022-09-04T19:27:32.298Z,61.60
2022-09-04T19:30:18.057Z,62.20
2022-09-04T19:32:48.119Z,62.30
2022-09-04T19:35:19.515Z,62.60
2022-09-04T19:39:23.082Z,62.80
2022-09-04T19:45:56.529Z,63.70
2022-09-04T19:46:13.318Z,63.40
2022-09-04T19:46:48.154Z,64.10
2022-09-04T19:52:23.706Z,64.20
2022-09-04T19:53:32.086Z,64.50
2022-09-04T19:55:24.634Z,64.50
2022-09-04T19:58:30.859Z,64.70
2022-09-04T20:01:00.960Z,65.30
2022-09-04T20:03:46.020Z,65.60
2022-09-04T20:06:20.742Z,66.00
2022-09-04T20:09:29.960Z,66.10
2022-09-04T20:12:09.645Z,66.10
2022-09-04T20:14:43.039Z,66.40
2022-09-04T20:17:17.120Z,66.40
2022-09-04T20:19:53.448Z,66.40
2022-09-04T20:22:26.115Z,66.50
2022-09-04T20:25:16.300Z,66.90
2022-09-04T20:27:47.312Z,67.40
2022-09-04T20:30:25.201Z,67.60
2022-09-04T20:33:12.844Z,68.20
2022-09-04T20:35:43.980Z,68.00
2022-09-04T20:38:34.125Z,68.40
2022-09-04T20:41:08.918Z,68.70
2022-09-04T20:43:40.813Z,69.30
2022-09-04T20:52:45.032Z,69.50
2022-09-04T20:52:54.035Z,69.30
2022-09-04T20:53:04.257Z,70.10
2022-09-04T20:55:17.589Z,70.20
2022-09-04T21:03:14.568Z,70.50
2022-09-04T21:03:27.001Z,70.50
2022-09-04T21:03:35.548Z,70.70
2022-09-04T21:06:25.970Z,70.80
2022-09-04T21:08:58.176Z,71.00
2022-09-04T21:11:40.605Z,71.50
2022-09-04T21:14:44.652Z,71.90
2022-09-04T21:17:33.798Z,72.10
2022-09-04T21:20:12.844Z,72.40
2022-09-04T21:22:59.961Z,72.80
2022-09-04T21:25:30.971Z,72.90
2022-09-04T21:28:20.005Z,73.00
2022-09-04T21:30:58.134Z,73.00
2022-09-04T21:33:42.773Z,73.40
2022-09-04T21:36:27.491Z,73.60
2022-09-04T21:39:18.976Z,73.80
2022-09-04T21:41:47.484Z,74.00
2022-09-04T21:44:15.971Z,73.80
2022-09-04T21:47:08.658Z,74.30
2022-09-04T21:49:41.532Z,74.50
2022-09-04T21:52:29.062Z,74.40
2022-09-04T21:57:53.180Z,74.80
2022-09-04T22:02:27.462Z,75.10
2022-09-04T22:02:49.591Z,75.40
2022-09-04T22:04:08.665Z,75.40
2022-09-04T22:08:47.746Z,75.60
2022-09-04T22:13:31.540Z,75.80
2022-09-04T22:13:43.093Z,75.90
2022-09-04T22:15:56.221Z,76.40
2022-09-04T22:18:40.630Z,76.80
2022-09-04T22:21:29.725Z,76.90
2022-09-04T22:24:04.526Z,77.20
2022-09-04T22:26:52.441Z,77.60
2022-09-04T22:29:40.548Z,77.90
2022-09-04T22:32:20.672Z,77.90
2022-09-04T22:34:49.401Z,78.20
2022-09-04T22:37:23.700Z,78.50
2022-09-04T22:40:02.307Z,78.40
2022-09-04T22:42:50.418Z,78.20
2022-09-04T22:45:31.732Z,78.20
2022-09-04T22:48:20.776Z,78.80
2022-09-04T22:51:11.855Z,78.40
2022-09-04T22:53:40.969Z,78.60
2022-09-04T22:56:24.166Z,78.80
2022-09-04T22:59:26.894Z,78.90
2022-09-04T23:02:09.918Z,79.00
2022-09-04T23:04:48.228Z,79.10
2022-09-04T23:13:41.887Z,79.50
2022-09-04T23:13:44.174Z,79.70
2022-09-04T23:14:22.277Z,79.80
2022-09-04T23:17:09.317Z,80.10
2022-09-04T23:26:01.603Z,80.30
2022-09-04T23:26:43.772Z,80.30
2022-09-04T23:26:45.506Z,80.30
2022-09-04T23:28:57.283Z,80.20
2022-09-04T23:31:46.929Z,80.30
2022-09-04T23:34:44.017Z,80.40
2022-09-04T23:37:34.500Z,80.90
2022-09-04T23:40:21.060Z,81.30
2022-09-04T23:43:20.014Z,81.40
2022-09-04T23:46:18.515Z,81.30
2022-09-04T23:49:11.805Z,81.40
2022-09-04T23:52:00.502Z,81.60
2022-09-04T23:54:53.184Z,81.60
2022-09-04T23:57:50.811Z,81.80
